Time,TemperatureF,DewpointF,PressureIn,WindDirection,WindDirectionDegrees,WindSpeedMPH,WindSpeedGustMPH,Humidity,HourlyPrecipIn,Conditions,Clouds,dailyrainin,SoftwareType,DateUTC
2013-02-27 00:00:00,47.3,41.5,30.07,East,80,2.0,5.0,80,0.00,,,0.00,VWS V14.01,2013-02-26 23:00:00,
2013-02-27 00:04:00,47.3,41.5,30.07,East,79,3.0,5.0,80,0.00,,,0.05,VWS V14.01,2013-02-26 23:04:00,
2013-02-27 00:09:00,47.2,41.4,30.07,East,80,3.0,5.0,80,0.00,,,0.00,VWS V14.01,2013-02-26 23:09:00,
2013-02-27 00:10:00,47.3,41.1,30.07,East,79,6.0,6.0,79,0.00,,,0.00,VWS V14.01,2013-02-26 23:10:00,
2013-02-27 00:14:00,47.3,41.1,30.07,East,80,3.0,5.0,79,0.00,,,0.00,VWS V14.01,2013-02-26 23:14:00,
2013-02-27 00:19:00,47.6,41.1,30.07,East,80,2.0,6.0,78,0.00,,,0.00,VWS V14.01,2013-02-26 23:19:00,
2013-02-27 00:20:00,47.8,41.0,30.07,East,80,3.0,6.0,77,0.00,,,0.00,VWS V14.01,2013-02-26 23:20:00,
2013-02-27 00:24:00,47.8,41.0,30.08,East,80,3.0,6.0,77,0.00,,,0.00,VWS V14.01,2013-02-26 23:24:00,
2013-02-27 00:29:00,47.9,40.7,30.08,East,80,2.0,5.0,76,0.00,,,0.00,VWS V14.01,2013-02-26 23:29:00,
2013-02-27 00:30:00,48.0,40.8,30.08,East,80,2.0,5.0,76,0.00,,,0.00,VWS V14.01,2013-02-26 23:30:00,
2013-02-27 00:34:00,48.0,40.8,30.08,East,80,2.0,5.0,76,0.00,,,0.00,VWS V14.01,2013-02-26 23:34:00,
2013-02-27 00:39:00,47.8,40.6,30.08,East,80,2.0,3.0,76,0.00,,,0.00,VWS V14.01,2013-02-26 23:39:00,
2013-02-27 00:40:00,47.6,40.4,30.08,East,80,3.0,3.0,76,0.00,,,0.00,VWS V14.01,2013-02-26 23:40:00,
2013-02-27 00:44:00,47.6,40.4,30.08,East,80,0.0,3.0,76,0.00,,,0.00,VWS V14.01,2013-02-26 23:44:00,
2013-02-27 00:49:00,47.7,40.5,30.08,East,80,2.0,3.0,76,0.00,,,0.00,VWS V14.01,2013-02-26 23:49:00,
2013-02-27 00:50:00,47.8,40.3,30.08,East,80,2.0,3.0,75,0.00,,,0.00,VWS V14.01,2013-02-26 23:50:00,
2013-02-27 00:54:00,47.8,40.6,30.08,East,80,1.0,3.0,76,0.00,,,0.00,VWS V14.01,2013-02-26 23:54:00,
2013-02-27 00:59:00,47.9,40.4,30.08,East,80,1.0,5.0,75,0.00,,,0.00,VWS V14.01,2013-02-26 23:59:00,
2013-02-27 01:00:00,47.9,40.4,30.08,East,80,5.0,5.0,75,0.00,,,0.00,VWS V14.01,2013-02-27 00:00:00,
2013-02-27 01:04:00,47.8,40.3,30.08,East,80,3.0,5.0,75,0.00,,,0.00,VWS V14.01,2013-02-27 00:04:00,
2013-02-27 01:09:00,48.2,40.0,30.08,East,80,3.0,5.0,73,0.00,,,0.00,VWS V14.01,2013-02-27 00:09:00,
2013-02-27 01:10:00,48.5,39.9,30.08,East,80,3.0,5.0,72,0.00,,,0.00,VWS V14.01,2013-02-27 00:10:00,
2013-02-27 01:14:00,48.4,39.8,30.08,East,80,2.0,5.0,72,0.00,,,0.00,VWS V14.01,2013-02-27 00:14:00,
2013-02-27 01:19:00,48.4,39.8,30.08,East,80,3.0,3.0,72,0.00,,,0.00,VWS V14.01,2013-02-27 00:19:00,
2013-02-27 01:20:00,48.4,39.8,30.08,East,80,0.0,3.0,72,0.00,,,0.00,VWS V14.01,2013-02-27 00:20:00,
2013-02-27 01:24:00,48.5,39.9,30.08,East,80,0.0,3.0,72,0.00,,,0.00,VWS V14.01,2013-02-27 00:24:00,
2013-02-27 01:29:00,48.2,39.6,30.08,East,80,0.0,0.0,72,0.00,,,0.00,VWS V14.01,2013-02-27 00:29:00,
2013-02-27 01:30:00,47.3,39.1,30.08,East,80,1.0,2.0,73,0.00,,,0.00,VWS V14.01,2013-02-27 00:30:00,
2013-02-27 01:34:00,47.3,39.1,30.08,East,80,1.0,2.0,73,0.00,,,0.00,VWS V14.01,2013-02-27 00:34:00,
2013-02-27 01:39:00,47.3,39.5,30.08,East,80,0.0,1.0,74,0.00,,,0.00,VWS V14.01,2013-02-27 00:39:00,
2013-02-27 01:40:00,47.6,39.7,30.08,East,80,2.0,3.0,74,0.00,,,0.00,VWS V14.01,2013-02-27 00:40:00,
2013-02-27 01:44:00,47.5,39.6,30.08,East,80,2.0,3.0,74,0.00,,,0.00,VWS V14.01,2013-02-27 00:44:00,
2013-02-27 01:49:00,47.9,39.7,30.08,East,80,0.0,3.0,73,0.00,,,0.00,VWS V14.01,2013-02-27 00:49:00,
2013-02-27 01:50:00,47.8,39.9,30.09,East,80,0.0,3.0,74,0.00,,,0.00,VWS V14.01,2013-02-27 00:50:00,
2013-02-27 01:54:00,47.9,40.0,30.09,East,80,0.0,3.0,74,0.00,,,0.00,VWS V14.01,2013-02-27 00:54:00,
2013-02-27 01:59:00,47.6,39.7,30.09,East,80,0.0,0.0,74,0.00,,,0.00,VWS V14.01,2013-02-27 00:59:00,
2013-02-27 02:00:00,47.5,40.0,30.09,East,80,0.0,0.0,75,0.00,,,0.00,VWS V14.01,2013-02-27 01:00:00,
2013-02-27 02:04:00,47.5,40.0,30.09,East,80,0.0,0.0,75,0.00,,,0.00,VWS V14.01,2013-02-27 01:04:00,
2013-02-27 02:09:00,47.5,40.3,30.09,East,80,0.0,0.0,76,0.00,,,0.00,VWS V14.01,2013-02-27 01:09:00,
2013-02-27 02:10:00,47.5,40.7,30.09,East,80,0.0,0.0,77,0.00,,,0.00,VWS V14.01,2013-02-27 01:10:00,
2013-02-27 02:14:00,47.5,40.7,30.09,East,80,0.0,0.0,77,0.00,,,0.00,VWS V14.01,2013-02-27 01:14:00,
2013-02-27 02:19:00,47.5,41.0,30.09,East,80,0.0,0.0,78,0.00,,,0.00,VWS V14.01,2013-02-27 01:19:00,
2013-02-27 02:20:00,46.8,40.3,30.09,East,80,0.0,0.0,78,0.00,,,0.00,VWS V14.01,2013-02-27 01:20:00,
2013-02-27 02:24:00,46.9,40.4,30.09,East,80,0.0,0.0,78,0.00,,,0.00,VWS V14.01,2013-02-27 01:24:00,
2013-02-27 02:29:00,46.0,39.9,30.09,East,80,2.0,5.0,79,0.00,,,0.00,VWS V14.01,2013-02-27 01:29:00,
2013-02-27 02:30:00,46.1,40.3,30.09,East,80,2.0,5.0,80,0.00,,,0.00,VWS V14.01,2013-02-27 01:30:00,
2013-02-27 02:35:00,46.1,40.3,30.09,East,80,3.0,5.0,80,0.00,,,0.00,VWS V14.01,2013-02-27 01:35:00,
2013-02-27 02:40:00,46.1,40.3,30.09,East,80,3.0,3.0,80,0.00,,,0.00,VWS V14.01,2013-02-27 01:40:00,
2013-02-27 02:45:00,46.2,40.7,30.09,East,80,5.0,5.0,81,0.00,,,0.00,VWS V14.01,2013-02-27 01:45:00,
2013-02-27 02:50:00,46.4,40.9,30.08,East,80,3.0,5.0,81,0.00,,,0.00,VWS V14.01,2013-02-27 01:50:00,
2013-02-27 02:55:00,46.6,41.1,30.08,East,80,3.0,5.0,81,0.00,,,0.00,VWS V14.01,2013-02-27 01:55:00,
2013-02-27 03:00:00,46.9,41.7,30.08,East,80,0.0,2.0,82,0.00,,,0.00,VWS V14.01,2013-02-27 02:00:00,
2013-02-27 03:05:00,47.0,41.8,30.08,East,80,1.0,2.0,82,0.00,,,0.00,VWS V14.01,2013-02-27 02:05:00,
2013-02-27 03:10:00,47.1,41.9,30.08,East,80,0.0,2.0,82,0.00,,,0.00,VWS V14.01,2013-02-27 02:10:00,
2013-02-27 03:15:00,47.1,41.9,30.08,East,80,0.0,2.0,82,0.00,,,0.00,VWS V14.01,2013-02-27 02:15:00,
2013-02-27 03:20:00,47.1,41.9,30.08,East,80,0.0,0.0,82,0.00,,,0.00,VWS V14.01,2013-02-27 02:20:00,
2013-02-27 03:25:00,47.2,42.3,30.08,East,80,0.0,0.0,83,0.00,,,0.00,VWS V14.01,2013-02-27 02:25:00,
2013-02-27 03:30:00,47.3,42.4,30.08,East,80,0.0,5.0,83,0.00,,,0.00,VWS V14.01,2013-02-27 02:30:00,
2013-02-27 03:35:00,47.1,42.2,30.08,East,80,0.0,5.0,83,0.00,,,0.00,VWS V14.01,2013-02-27 02:35:00,
2013-02-27 03:40:00,46.9,42.0,30.08,East,80,0.0,3.0,83,0.00,,,0.00,VWS V14.01,2013-02-27 02:40:00,
2013-02-27 03:45:00,47.0,42.4,30.08,East,80,0.0,3.0,84,0.00,,,0.00,VWS V14.01,2013-02-27 02:45:00,
2013-02-27 03:50:00,47.4,43.1,30.08,East,80,0.0,3.0,85,0.00,,,0.00,VWS V14.01,2013-02-27 02:50:00,
2013-02-27 03:55:00,47.6,43.3,30.08,East,80,1.0,3.0,85,0.00,,,0.00,VWS V14.01,2013-02-27 02:55:00,
2013-02-27 04:00:00,47.6,43.3,30.07,East,80,0.0,3.0,85,0.00,,,0.00,VWS V14.01,2013-02-27 03:00:00,
2013-02-27 04:05:00,47.5,43.2,30.07,East,80,0.0,3.0,85,0.00,,,0.00,VWS V14.01,2013-02-27 03:05:00,
2013-02-27 04:10:00,47.4,43.1,30.07,East,80,0.0,0.0,85,0.00,,,0.00,VWS V14.01,2013-02-27 03:10:00,
2013-02-27 04:15:00,47.3,43.0,30.07,East,80,0.0,0.0,85,0.00,,,0.00,VWS V14.01,2013-02-27 03:15:00,
2013-02-27 04:20:00,47.4,43.1,30.07,East,80,0.0,1.0,85,0.00,,,0.00,VWS V14.01,2013-02-27 03:20:00,
2013-02-27 04:25:00,47.4,43.4,30.07,East,80,1.0,2.0,86,0.00,,,0.00,VWS V14.01,2013-02-27 03:25:00,
2013-02-27 04:30:00,47.5,43.5,30.07,East,80,0.0,2.0,86,0.00,,,0.00,VWS V14.01,2013-02-27 03:30:00,
2013-02-27 04:35:00,47.3,43.3,30.07,East,80,0.0,2.0,86,0.00,,,0.00,VWS V14.01,2013-02-27 03:35:00,
2013-02-27 04:40:00,47.1,42.8,30.08,East,80,2.0,2.0,85,0.00,,,0.00,VWS V14.01,2013-02-27 03:40:00,
2013-02-27 04:45:00,46.8,42.8,30.08,East,80,3.0,3.0,86,0.00,,,0.00,VWS V14.01,2013-02-27 03:45:00,
2013-02-27 04:50:00,46.6,42.6,30.08,East,80,3.0,3.0,86,0.00,,,0.00,VWS V14.01,2013-02-27 03:50:00,
2013-02-27 04:55:00,46.5,42.5,30.07,East,80,3.0,5.0,86,0.00,,,0.00,VWS V14.01,2013-02-27 03:55:00,
2013-02-27 05:00:00,46.5,42.5,30.07,East,80,3.0,5.0,86,0.00,,,0.00,VWS V14.01,2013-02-27 04:00:00,
2013-02-27 05:05:00,46.3,42.3,30.07,East,79,3.0,6.0,86,0.00,,,0.00,VWS V14.01,2013-02-27 04:05:00,
2013-02-27 05:10:00,46.3,42.3,30.07,East,79,6.0,6.0,86,0.00,,,0.00,VWS V14.01,2013-02-27 04:10:00,
2013-02-27 05:15:00,46.3,42.3,30.07,ENE,78,4.0,6.0,86,0.00,,,0.00,VWS V14.01,2013-02-27 04:15:00,
2013-02-27 05:20:00,46.3,42.3,30.07,ENE,76,1.0,5.0,86,0.00,,,0.00,VWS V14.01,2013-02-27 04:20:00,
2013-02-27 05:25:00,46.5,42.8,30.07,ENE,76,2.0,5.0,87,0.00,,,0.00,VWS V14.01,2013-02-27 04:25:00,
2013-02-27 05:30:00,46.6,42.9,30.07,ENE,76,0.0,4.0,87,0.00,,,0.00,VWS V14.01,2013-02-27 04:30:00,
2013-02-27 05:35:00,46.7,42.7,30.07,ENE,76,1.0,4.0,86,0.00,,,0.00,VWS V14.01,2013-02-27 04:35:00,
2013-02-27 05:40:00,46.8,42.8,30.07,ENE,76,4.0,4.0,86,0.00,,,0.00,VWS V14.01,2013-02-27 04:40:00,
2013-02-27 05:45:00,46.7,42.7,30.07,ENE,76,2.0,4.0,86,0.00,,,0.00,VWS V14.01,2013-02-27 04:45:00,
2013-02-27 05:50:00,46.8,43.1,30.07,ENE,76,1.0,4.0,87,0.00,,,0.00,VWS V14.01,2013-02-27 04:50:00,
2013-02-27 05:55:00,46.6,42.6,30.07,ENE,74,5.0,7.0,86,0.00,,,0.00,VWS V14.01,2013-02-27 04:55:00,
2013-02-27 06:00:00,46.6,42.6,30.07,ENE,68,5.0,5.0,86,0.00,,,0.00,VWS V14.01,2013-02-27 05:00:00,
2013-02-27 06:05:00,46.3,42.3,30.08,ENE,57,7.0,7.0,86,0.00,,,0.00,VWS V14.01,2013-02-27 05:05:00,
2013-02-27 06:10:00,46.1,42.5,30.08,NE,55,5.0,6.0,87,0.00,,,0.00,VWS V14.01,2013-02-27 05:10:00,
2013-02-27 06:15:00,46.0,42.3,30.08,NE,55,3.0,6.0,87,0.00,,,0.00,VWS V14.01,2013-02-27 05:15:00,
2013-02-27 06:20:00,45.9,42.3,30.08,NE,55,4.0,5.0,87,0.00,,,0.00,VWS V14.01,2013-02-27 05:20:00,
2013-02-27 06:25:00,45.9,42.0,30.08,NE,55,5.0,6.0,86,0.00,,,0.00,VWS V14.01,2013-02-27 05:25:00,
2013-02-27 06:30:00,45.6,41.7,30.08,NE,53,4.0,6.0,86,0.00,,,0.00,VWS V14.01,2013-02-27 05:30:00,
2013-02-27 06:35:00,45.7,41.8,30.08,NE,51,4.0,6.0,86,0.00,,,0.00,VWS V14.01,2013-02-27 05:35:00,
2013-02-27 06:40:00,45.9,42.0,30.08,NE,49,6.0,7.0,86,0.00,,,0.00,VWS V14.01,2013-02-27 05:40:00,
2013-02-27 06:45:00,45.8,41.9,30.08,NE,46,5.0,7.0,86,0.00,,,0.00,VWS V14.01,2013-02-27 05:45:00,
2013-02-27 06:50:00,45.9,42.0,30.09,NE,45,5.0,7.0,86,0.00,,,0.00,VWS V14.01,2013-02-27 05:50:00,
2013-02-27 06:55:00,46.0,41.8,30.09,NE,44,6.0,7.0,85,0.00,,,0.00,VWS V14.01,2013-02-27 05:55:00,
2013-02-27 07:00:00,45.8,41.5,30.09,NE,44,3.0,6.0,85,0.00,,,0.00,VWS V14.01,2013-02-27 06:00:00,
2013-02-27 07:05:00,45.9,41.7,30.09,NE,44,5.0,6.0,85,0.00,,,0.00,VWS V14.01,2013-02-27 06:05:00,
2013-02-27 07:10:00,45.9,41.7,30.09,NE,42,3.0,6.0,85,0.00,,,0.00,VWS V14.01,2013-02-27 06:10:00,
2013-02-27 07:15:00,46.1,41.8,30.10,NE,42,4.0,6.0,85,0.00,,,0.00,VWS V14.01,2013-02-27 06:15:00,
2013-02-27 07:20:00,46.0,41.8,30.10,NE,42,3.0,5.0,85,0.00,,,0.00,VWS V14.01,2013-02-27 06:20:00,
2013-02-27 07:25:00,46.2,42.2,30.09,NE,43,7.0,7.0,86,0.00,,,0.00,VWS V14.01,2013-02-27 06:25:00,
2013-02-27 07:30:00,47.0,42.7,30.09,NE,44,7.0,8.0,85,0.00,,,0.00,VWS V14.01,2013-02-27 06:30:00,
2013-02-27 07:35:00,47.2,42.9,30.09,NE,44,4.0,8.0,85,0.00,,,0.00,VWS V14.01,2013-02-27 06:35:00,
2013-02-27 07:40:00,47.2,42.9,30.10,NE,44,5.0,6.0,85,0.00,,,0.00,VWS V14.01,2013-02-27 06:40:00,
2013-02-27 07:45:00,47.4,43.1,30.10,NE,44,5.0,6.0,85,0.00,,,0.00,VWS V14.01,2013-02-27 06:45:00,
2013-02-27 07:50:00,47.7,43.4,30.10,NE,44,3.0,6.0,85,0.00,,,0.00,VWS V14.01,2013-02-27 06:50:00,
2013-02-27 07:55:00,47.9,43.6,30.10,NE,44,3.0,6.0,85,0.00,,,0.00,VWS V14.01,2013-02-27 06:55:00,
2013-02-27 08:00:00,48.0,43.7,30.10,NE,44,4.0,5.0,85,0.00,,,0.00,VWS V14.01,2013-02-27 07:00:00,
2013-02-27 08:05:00,48.2,43.9,30.10,NE,44,2.0,5.0,85,0.00,,,0.00,VWS V14.01,2013-02-27 07:05:00,
2013-02-27 08:10:00,48.3,44.0,30.11,NE,44,3.0,5.0,85,0.00,,,0.00,VWS V14.01,2013-02-27 07:10:00,
2013-02-27 08:15:00,48.7,44.4,30.11,NE,44,3.0,3.0,85,0.00,,,0.00,VWS V14.01,2013-02-27 07:15:00,
2013-02-27 08:20:00,48.9,44.6,30.11,NE,44,3.0,5.0,85,0.00,,,0.00,VWS V14.01,2013-02-27 07:20:00,
2013-02-27 08:26:00,49.2,44.6,30.11,NE,44,3.0,3.0,84,0.00,,,0.00,VWS V14.01,2013-02-27 07:26:00,
2013-02-27 08:30:00,49.2,44.6,30.11,NE,43,2.0,6.0,84,0.00,,,0.00,VWS V14.01,2013-02-27 07:30:00,
2013-02-27 08:31:00,49.1,44.5,30.11,NE,43,4.0,6.0,84,0.00,,,0.00,VWS V14.01,2013-02-27 07:31:00,
2013-02-27 08:36:00,49.3,44.7,30.11,NE,43,5.0,5.0,84,0.00,,,0.00,VWS V14.01,2013-02-27 07:36:00,
2013-02-27 08:40:00,49.4,44.5,30.11,NE,42,5.0,6.0,83,0.00,,,0.00,VWS V14.01,2013-02-27 07:40:00,
2013-02-27 08:41:00,49.4,44.5,30.11,NE,42,5.0,6.0,83,0.00,,,0.00,VWS V14.01,2013-02-27 07:41:00,
2013-02-27 08:46:00,49.4,44.5,30.11,NE,42,6.0,6.0,83,0.00,,,0.00,VWS V14.01,2013-02-27 07:46:00,
2013-02-27 08:50:00,49.5,44.2,30.11,NE,41,5.0,6.0,82,0.00,,,0.00,VWS V14.01,2013-02-27 07:50:00,
2013-02-27 08:51:00,49.7,44.8,30.11,NE,42,0.0,6.0,83,0.00,,,0.00,VWS V14.01,2013-02-27 07:51:00,
2013-02-27 08:56:00,49.5,44.2,30.11,NE,41,5.0,5.0,82,0.00,,,0.00,VWS V14.01,2013-02-27 07:56:00,
2013-02-27 09:00:00,49.8,44.2,30.12,NE,41,4.0,5.0,81,0.00,,,0.00,VWS V14.01,2013-02-27 08:00:00,
2013-02-27 09:01:00,49.8,44.5,30.12,NE,41,5.0,5.0,82,0.00,,,0.00,VWS V14.01,2013-02-27 08:01:00,
2013-02-27 09:06:00,49.8,44.2,30.12,NE,41,4.0,4.0,81,0.00,,,0.00,VWS V14.01,2013-02-27 08:06:00,
2013-02-27 09:10:00,49.9,44.0,30.12,NE,41,0.0,4.0,80,0.00,,,0.00,VWS V14.01,2013-02-27 08:10:00,
2013-02-27 09:11:00,49.8,44.2,30.12,NE,41,2.0,4.0,81,0.00,,,0.00,VWS V14.01,2013-02-27 08:11:00,
2013-02-27 09:16:00,50.0,44.1,30.11,NE,41,0.0,0.0,80,0.00,,,0.00,VWS V14.01,2013-02-27 08:16:00,
2013-02-27 09:20:00,50.7,44.8,30.12,NE,41,1.0,2.0,80,0.00,,,0.00,VWS V14.01,2013-02-27 08:20:00,
2013-02-27 09:21:00,50.2,44.3,30.12,NE,41,0.0,0.0,80,0.00,,,0.00,VWS V14.01,2013-02-27 08:21:00,
2013-02-27 09:26:00,50.7,44.4,30.12,NE,41,0.0,1.0,79,0.00,,,0.00,VWS V14.01,2013-02-27 08:26:00,
2013-02-27 09:30:00,51.7,44.7,30.12,NE,41,0.0,2.0,77,0.00,,,0.00,VWS V14.01,2013-02-27 08:30:00,
2013-02-27 09:31:00,51.4,45.1,30.12,NE,41,0.0,1.0,79,0.00,,,0.00,VWS V14.01,2013-02-27 08:31:00,
2013-02-27 09:36:00,51.7,44.7,30.12,NE,41,0.0,0.0,77,0.00,,,0.00,VWS V14.01,2013-02-27 08:36:00,
2013-02-27 09:40:00,51.9,44.2,30.12,NE,41,1.0,2.0,75,0.00,,,0.00,VWS V14.01,2013-02-27 08:40:00,
2013-02-27 09:41:00,52.2,45.2,30.12,NE,41,0.0,2.0,77,0.00,,,0.00,VWS V14.01,2013-02-27 08:41:00,
2013-02-27 09:46:00,51.8,44.1,30.12,NE,41,1.0,1.0,75,0.00,,,0.00,VWS V14.01,2013-02-27 08:46:00,
2013-02-27 09:50:00,51.2,43.6,30.12,NE,41,0.0,2.0,75,0.00,,,0.00,VWS V14.01,2013-02-27 08:50:00,
2013-02-27 09:51:00,51.2,43.2,30.12,NE,41,0.0,2.0,74,0.00,,,0.00,VWS V14.01,2013-02-27 08:51:00,
2013-02-27 09:56:00,51.2,43.6,30.12,NE,41,0.0,0.0,75,0.00,,,0.00,VWS V14.01,2013-02-27 08:56:00,
2013-02-27 10:00:00,51.4,43.8,30.12,NE,41,0.0,1.0,75,0.00,,,0.00,VWS V14.01,2013-02-27 09:00:00,
2013-02-27 10:01:00,51.4,43.8,30.12,NE,41,0.0,0.0,75,0.00,,,0.00,VWS V14.01,2013-02-27 09:01:00,
2013-02-27 10:06:00,51.4,43.8,30.12,NE,41,0.0,0.0,75,0.00,,,0.00,VWS V14.01,2013-02-27 09:06:00,
2013-02-27 10:10:00,52.7,45.0,30.12,NE,41,0.0,2.0,75,0.00,,,0.00,VWS V14.01,2013-02-27 09:10:00,
2013-02-27 10:11:00,52.1,44.4,30.12,NE,41,0.0,2.0,75,0.00,,,0.00,VWS V14.01,2013-02-27 09:11:00,
2013-02-27 10:16:00,52.9,45.2,30.12,NE,41,4.0,4.0,75,0.00,,,0.00,VWS V14.01,2013-02-27 09:16:00,
2013-02-27 10:20:00,52.1,44.1,30.12,SW,227,6.0,6.0,74,0.00,,,0.00,VWS V14.01,2013-02-27 09:20:00,
2013-02-27 10:21:00,53.0,45.0,30.12,South,184,5.0,6.0,74,0.00,,,0.00,VWS V14.01,2013-02-27 09:21:00,
2013-02-27 10:26:00,51.8,43.8,30.12,SW,227,5.0,6.0,74,0.00,,,0.00,VWS V14.01,2013-02-27 09:26:00,
2013-02-27 10:30:00,52.0,44.0,30.12,WSW,237,3.0,7.0,74,0.00,,,0.00,VWS V14.01,2013-02-27 09:30:00,
2013-02-27 10:31:00,51.8,43.8,30.12,WSW,248,5.0,7.0,74,0.00,,,0.00,VWS V14.01,2013-02-27 09:31:00,
2013-02-27 10:36:00,52.0,44.3,30.13,SW,234,3.0,7.0,75,0.00,,,0.00,VWS V14.01,2013-02-27 09:36:00,
2013-02-27 10:40:00,52.4,44.4,30.12,SSW,204,5.0,7.0,74,0.00,,,0.00,VWS V14.01,2013-02-27 09:40:00,
2013-02-27 10:41:00,51.8,43.1,30.13,SW,235,2.0,7.0,72,0.00,,,0.00,VWS V14.01,2013-02-27 09:41:00,
2013-02-27 10:46:00,52.5,44.5,30.13,SSW,200,4.0,5.0,74,0.00,,,0.00,VWS V14.01,2013-02-27 09:46:00,
2013-02-27 10:50:00,52.6,44.2,30.13,SW,215,4.0,8.0,73,0.00,,,0.00,VWS V14.01,2013-02-27 09:50:00,
2013-02-27 10:51:00,52.8,44.4,30.13,WSW,244,6.0,8.0,73,0.00,,,0.00,VWS V14.01,2013-02-27 09:51:00,
2013-02-27 10:56:00,52.6,44.2,30.13,SW,223,5.0,5.0,73,0.00,,,0.00,VWS V14.01,2013-02-27 09:56:00,
2013-02-27 11:00:00,52.5,44.1,30.13,SW,220,4.0,8.0,73,0.00,,,0.00,VWS V14.01,2013-02-27 10:00:00,
2013-02-27 11:01:00,52.8,44.4,30.13,SW,219,4.0,7.0,73,0.00,,,0.00,VWS V14.01,2013-02-27 10:01:00,
2013-02-27 11:06:00,52.4,44.0,30.13,SW,220,2.0,4.0,73,0.00,,,0.00,VWS V14.01,2013-02-27 10:06:00,
2013-02-27 11:10:00,52.5,44.1,30.13,SW,234,3.0,7.0,73,0.00,,,0.00,VWS V14.01,2013-02-27 10:10:00,
2013-02-27 11:11:00,52.9,44.5,30.13,South,177,4.0,7.0,73,0.00,,,0.00,VWS V14.01,2013-02-27 10:11:00,
2013-02-27 11:17:00,52.3,43.9,30.13,South,182,9.0,9.0,73,0.00,,,0.00,VWS V14.01,2013-02-27 10:17:00,
2013-02-27 11:20:00,51.7,43.7,30.13,SSW,213,2.0,11.0,74,0.00,,,0.00,VWS V14.01,2013-02-27 10:20:00,
2013-02-27 11:22:00,52.1,44.1,30.13,SW,236,8.0,9.0,74,0.00,,,0.00,VWS V14.01,2013-02-27 10:22:00,
2013-02-27 11:27:00,51.9,43.9,30.13,South,171,5.0,8.0,74,0.00,,,0.00,VWS V14.01,2013-02-27 10:27:00,
2013-02-27 11:30:00,52.1,43.7,30.13,South,178,7.0,10.0,73,0.00,,,0.00,VWS V14.01,2013-02-27 10:30:00,
2013-02-27 11:32:00,52.1,44.1,30.13,SSW,207,5.0,10.0,74,0.00,,,0.00,VWS V14.01,2013-02-27 10:32:00,
2013-02-27 11:37:00,52.1,44.1,30.13,WSW,238,6.0,8.0,74,0.00,,,0.00,VWS V14.01,2013-02-27 10:37:00,
2013-02-27 11:40:00,52.9,45.2,30.13,WSW,242,6.0,8.0,75,0.00,,,0.00,VWS V14.01,2013-02-27 10:40:00,
2013-02-27 11:42:00,52.5,44.5,30.13,SW,235,4.0,8.0,74,0.00,,,0.00,VWS V14.01,2013-02-27 10:42:00,
2013-02-27 11:47:00,53.0,45.0,30.13,SSW,197,3.0,8.0,74,0.00,,,0.00,VWS V14.01,2013-02-27 10:47:00,
2013-02-27 11:50:00,52.4,44.4,30.13,South,191,3.0,9.0,74,0.00,,,0.00,VWS V14.01,2013-02-27 10:50:00,
2013-02-27 11:52:00,52.6,44.6,30.13,South,182,7.0,9.0,74,0.00,,,0.00,VWS V14.01,2013-02-27 10:52:00,
2013-02-27 11:57:00,52.6,44.6,30.13,South,171,2.0,5.0,74,0.00,,,0.00,VWS V14.01,2013-02-27 10:57:00,
2013-02-27 12:00:00,52.8,44.4,30.13,SSW,192,5.0,9.0,73,0.00,,,0.00,VWS V14.01,2013-02-27 11:00:00,
2013-02-27 12:02:00,53.3,44.9,30.13,SSW,210,6.0,9.0,73,0.00,,,0.00,VWS V14.01,2013-02-27 11:02:00,
2013-02-27 12:07:00,52.7,44.3,30.13,SSW,209,6.0,6.0,73,0.00,,,0.00,VWS V14.01,2013-02-27 11:07:00,
2013-02-27 12:10:00,52.8,44.8,30.13,South,187,4.0,9.0,74,0.00,,,0.00,VWS V14.01,2013-02-27 11:10:00,
2013-02-27 12:12:00,52.8,44.8,30.13,WSW,238,9.0,9.0,74,0.00,,,0.00,VWS V14.01,2013-02-27 11:12:00,
2013-02-27 12:17:00,52.8,44.8,30.13,South,176,6.0,8.0,74,0.00,,,0.00,VWS V14.01,2013-02-27 11:17:00,
2013-02-27 12:20:00,53.5,45.4,30.13,SW,234,3.0,9.0,74,0.00,,,0.00,VWS V14.01,2013-02-27 11:20:00,
2013-02-27 12:22:00,53.5,45.8,30.13,WSW,238,6.0,8.0,75,0.00,,,0.00,VWS V14.01,2013-02-27 11:22:00,
2013-02-27 12:27:00,53.4,45.0,30.13,West,259,2.0,7.0,73,0.00,,,0.00,VWS V14.01,2013-02-27 11:27:00,
2013-02-27 12:30:00,53.3,44.9,30.12,WSW,256,7.0,10.0,73,0.00,,,0.00,VWS V14.01,2013-02-27 11:30:00,
2013-02-27 12:32:00,53.1,44.7,30.12,SW,236,1.0,10.0,73,0.00,,,0.00,VWS V14.01,2013-02-27 11:32:00,
2013-02-27 12:37:00,53.8,45.4,30.12,WSW,239,9.0,9.0,73,0.00,,,0.00,VWS V14.01,2013-02-27 11:37:00,
2013-02-27 12:40:00,53.7,44.5,30.12,SW,231,4.0,11.0,71,0.00,,,0.00,VWS V14.01,2013-02-27 11:40:00,
2013-02-27 12:42:00,53.9,45.1,30.12,WSW,252,5.0,9.0,72,0.00,,,0.00,VWS V14.01,2013-02-27 11:42:00,
2013-02-27 12:47:00,53.3,44.2,30.12,SSW,199,6.0,9.0,71,0.00,,,0.00,VWS V14.01,2013-02-27 11:47:00,
2013-02-27 12:50:00,53.5,44.0,30.11,West,264,9.0,11.0,70,0.00,,,0.00,VWS V14.01,2013-02-27 11:50:00,
2013-02-27 12:52:00,53.7,44.9,30.11,West,268,4.0,10.0,72,0.00,,,0.00,VWS V14.01,2013-02-27 11:52:00,
2013-02-27 12:57:00,53.5,43.6,30.11,West,260,2.0,9.0,69,0.00,,,0.00,VWS V14.01,2013-02-27 11:57:00,
2013-02-27 13:00:00,53.6,42.5,30.11,West,259,9.0,13.0,66,0.00,,,0.00,VWS V14.01,2013-02-27 12:00:00,
2013-02-27 13:02:00,53.3,42.6,30.11,West,271,8.0,13.0,67,0.00,,,0.00,VWS V14.01,2013-02-27 12:02:00,
2013-02-27 13:07:00,53.7,42.6,30.11,West,270,7.0,9.0,66,0.00,,,0.00,VWS V14.01,2013-02-27 12:07:00,
2013-02-27 13:10:00,54.0,42.9,30.11,WSW,248,5.0,12.0,66,0.00,,,0.00,VWS V14.01,2013-02-27 12:10:00,
2013-02-27 13:12:00,53.6,42.1,30.11,WSW,244,6.0,12.0,65,0.00,,,0.00,VWS V14.01,2013-02-27 12:12:00,
2013-02-27 13:17:00,54.1,42.6,30.11,WSW,244,7.0,10.0,65,0.00,,,0.00,VWS V14.01,2013-02-27 12:17:00,
2013-02-27 13:20:00,53.9,42.4,30.11,West,267,4.0,12.0,65,0.00,,,0.00,VWS V14.01,2013-02-27 12:20:00,
2013-02-27 13:22:00,53.9,42.0,30.11,WNW,302,4.0,11.0,64,0.00,,,0.00,VWS V14.01,2013-02-27 12:22:00,
2013-02-27 13:27:00,54.0,42.5,30.10,WSW,246,7.0,10.0,65,0.00,,,0.00,VWS V14.01,2013-02-27 12:27:00,
2013-02-27 13:30:00,54.1,42.2,30.10,WSW,254,12.0,12.0,64,0.00,,,0.00,VWS V14.01,2013-02-27 12:30:00,
2013-02-27 13:32:00,53.6,41.7,30.11,West,271,9.0,11.0,64,0.00,,,0.00,VWS V14.01,2013-02-27 12:32:00,
2013-02-27 13:37:00,54.1,42.2,30.10,West,272,8.0,12.0,64,0.00,,,0.00,VWS V14.01,2013-02-27 12:37:00,
2013-02-27 13:40:00,54.1,40.5,30.10,WNW,295,4.0,12.0,60,0.00,,,0.00,VWS V14.01,2013-02-27 12:40:00,
2013-02-27 13:42:00,53.9,41.2,30.10,West,278,11.0,12.0,62,0.00,,,0.00,VWS V14.01,2013-02-27 12:42:00,
2013-02-27 13:47:00,53.8,40.3,30.10,WSW,243,8.0,12.0,60,0.00,,,0.00,VWS V14.01,2013-02-27 12:47:00,
2013-02-27 13:50:00,54.4,40.8,30.10,WNW,288,8.0,13.0,60,0.00,,,0.00,VWS V14.01,2013-02-27 12:50:00,
2013-02-27 13:52:00,54.3,41.2,30.10,WSW,239,3.0,13.0,61,0.00,,,0.00,VWS V14.01,2013-02-27 12:52:00,
2013-02-27 13:57:00,53.2,39.7,30.10,WNW,290,7.0,15.0,60,0.00,,,0.00,VWS V14.01,2013-02-27 12:57:00,
2013-02-27 14:00:00,54.3,41.2,30.10,WNW,289,11.0,15.0,61,0.00,,,0.00,VWS V14.01,2013-02-27 13:00:00,
2013-02-27 14:03:00,53.5,39.5,30.10,WSW,252,4.0,15.0,59,0.00,,,0.00,VWS V14.01,2013-02-27 13:03:00,
2013-02-27 14:08:00,54.5,40.5,30.10,WSW,242,8.0,11.0,59,0.00,,,0.00,VWS V14.01,2013-02-27 13:08:00,
2013-02-27 14:10:00,54.4,40.0,30.10,WNW,291,8.0,13.0,58,0.00,,,0.00,VWS V14.01,2013-02-27 13:10:00,
2013-02-27 14:13:00,54.4,40.4,30.10,SW,236,13.0,13.0,59,0.00,,,0.00,VWS V14.01,2013-02-27 13:13:00,
2013-02-27 14:18:00,54.5,40.5,30.11,WSW,251,8.0,12.0,59,0.00,,,0.00,VWS V14.01,2013-02-27 13:18:00,
2013-02-27 14:20:00,53.8,38.9,30.11,West,281,10.0,14.0,57,0.00,,,0.00,VWS V14.01,2013-02-27 13:20:00,
2013-02-27 14:23:00,53.9,39.5,30.11,West,277,5.0,12.0,58,0.00,,,0.00,VWS V14.01,2013-02-27 13:23:00,
2013-02-27 14:28:00,54.0,39.1,30.10,West,269,9.0,12.0,57,0.00,,,0.00,VWS V14.01,2013-02-27 13:28:00,
2013-02-27 14:30:00,54.3,39.4,30.10,West,262,7.0,13.0,57,0.00,,,0.00,VWS V14.01,2013-02-27 13:30:00,
2013-02-27 14:33:00,53.9,39.0,30.10,West,265,5.0,13.0,57,0.00,,,0.00,VWS V14.01,2013-02-27 13:33:00,
2013-02-27 14:38:00,54.4,40.0,30.10,West,273,5.0,12.0,58,0.00,,,0.00,VWS V14.01,2013-02-27 13:38:00,
2013-02-27 14:40:00,54.4,38.6,30.10,WNW,295,2.0,13.0,55,0.00,,,0.00,VWS V14.01,2013-02-27 13:40:00,
2013-02-27 14:43:00,54.5,38.7,30.10,West,271,1.0,12.0,55,0.00,,,0.00,VWS V14.01,2013-02-27 13:43:00,
2013-02-27 14:48:00,54.8,40.3,30.10,West,277,3.0,8.0,58,0.00,,,0.00,VWS V14.01,2013-02-27 13:48:00,
2013-02-27 14:50:00,54.4,40.0,30.10,WNW,296,9.0,12.0,58,0.00,,,0.00,VWS V14.01,2013-02-27 13:50:00,
2013-02-27 14:53:00,54.2,38.9,30.10,WNW,287,2.0,12.0,56,0.00,,,0.00,VWS V14.01,2013-02-27 13:53:00,
2013-02-27 14:58:00,54.5,39.6,30.11,WNW,284,2.0,11.0,57,0.00,,,0.00,VWS V14.01,2013-02-27 13:58:00,
2013-02-27 15:00:00,54.6,39.2,30.10,WSW,257,9.0,11.0,56,0.00,,,0.00,VWS V14.01,2013-02-27 14:00:00,
2013-02-27 15:03:00,54.7,39.3,30.11,West,273,9.0,11.0,56,0.00,,,0.00,VWS V14.01,2013-02-27 14:03:00,
2013-02-27 15:08:00,54.2,40.6,30.10,West,281,13.0,13.0,60,0.00,,,0.00,VWS V14.01,2013-02-27 14:08:00,
2013-02-27 15:10:00,53.7,39.7,30.11,WNW,288,11.0,13.0,59,0.00,,,0.00,VWS V14.01,2013-02-27 14:10:00,
2013-02-27 15:13:00,53.9,40.8,30.11,WNW,286,11.0,13.0,61,0.00,,,0.00,VWS V14.01,2013-02-27 14:13:00,
2013-02-27 15:18:00,54.0,40.4,30.11,West,269,11.0,13.0,60,0.00,,,0.00,VWS V14.01,2013-02-27 14:18:00,
2013-02-27 15:20:00,53.8,38.0,30.10,WNW,296,9.0,14.0,55,0.00,,,0.00,VWS V14.01,2013-02-27 14:20:00,
2013-02-27 15:23:00,53.8,38.5,30.11,NW,323,10.0,14.0,56,0.00,,,0.00,VWS V14.01,2013-02-27 14:23:00,
2013-02-27 15:28:00,53.9,38.6,30.11,West,260,8.0,11.0,56,0.00,,,0.00,VWS V14.01,2013-02-27 14:28:00,
2013-02-27 15:30:00,53.8,38.0,30.11,West,261,6.0,13.0,55,0.00,,,0.00,VWS V14.01,2013-02-27 14:30:00,
2013-02-27 15:33:00,54.0,38.2,30.11,West,273,10.0,12.0,55,0.00,,,0.00,VWS V14.01,2013-02-27 14:33:00,
2013-02-27 15:38:00,53.7,38.4,30.11,WNW,295,7.0,13.0,56,0.00,,,0.00,VWS V14.01,2013-02-27 14:38:00,
2013-02-27 15:40:00,53.8,38.9,30.11,WSW,252,10.0,13.0,57,0.00,,,0.00,VWS V14.01,2013-02-27 14:40:00,
2013-02-27 15:44:00,53.9,39.5,30.11,West,275,4.0,13.0,58,0.00,,,0.00,VWS V14.01,2013-02-27 14:44:00,
2013-02-27 15:49:00,54.0,40.4,30.11,SW,229,8.0,10.0,60,0.00,,,0.00,VWS V14.01,2013-02-27 14:49:00,
2013-02-27 15:50:00,53.5,39.1,30.11,NW,306,7.0,14.0,58,0.00,,,0.00,VWS V14.01,2013-02-27 14:50:00,
2013-02-27 15:54:00,53.9,39.5,30.11,WNW,289,14.0,14.0,58,0.00,,,0.00,VWS V14.01,2013-02-27 14:54:00,
2013-02-27 15:59:00,53.2,39.3,30.11,West,259,9.0,15.0,59,0.00,,,0.00,VWS V14.01,2013-02-27 14:59:00,
2013-02-27 16:00:00,53.7,39.7,30.11,WNW,288,2.0,15.0,59,0.00,,,0.00,VWS V14.01,2013-02-27 15:00:00,
2013-02-27 16:04:00,53.5,40.0,30.11,West,262,7.0,15.0,60,0.00,,,0.00,VWS V14.01,2013-02-27 15:04:00,
2013-02-27 16:09:00,53.9,39.9,30.11,WSW,246,6.0,9.0,59,0.00,,,0.00,VWS V14.01,2013-02-27 15:09:00,
2013-02-27 16:10:00,53.9,40.3,30.11,West,272,10.0,11.0,60,0.00,,,0.00,VWS V14.01,2013-02-27 15:10:00,
2013-02-27 16:14:00,53.7,39.3,30.11,WNW,284,5.0,11.0,58,0.00,,,0.00,VWS V14.01,2013-02-27 15:14:00,
2013-02-27 16:19:00,53.8,39.8,30.11,West,278,6.0,12.0,59,0.00,,,0.00,VWS V14.01,2013-02-27 15:19:00,
2013-02-27 16:20:00,53.6,40.9,30.11,WSW,252,7.0,13.0,62,0.00,,,0.00,VWS V14.01,2013-02-27 15:20:00,
2013-02-27 16:24:00,53.6,40.9,30.11,WSW,258,6.0,13.0,62,0.00,,,0.00,VWS V14.01,2013-02-27 15:24:00,
2013-02-27 16:29:00,53.4,40.7,30.11,WNW,298,7.0,11.0,62,0.00,,,0.00,VWS V14.01,2013-02-27 15:29:00,
2013-02-27 16:30:00,53.4,40.7,30.11,WNW,285,5.0,11.0,62,0.00,,,0.00,VWS V14.01,2013-02-27 15:30:00,
2013-02-27 16:34:00,53.5,40.8,30.11,WSW,251,6.0,11.0,62,0.00,,,0.00,VWS V14.01,2013-02-27 15:34:00,
2013-02-27 16:39:00,53.6,40.5,30.11,West,273,4.0,8.0,61,0.00,,,0.00,VWS V14.01,2013-02-27 15:39:00,
2013-02-27 16:40:00,53.5,40.4,30.11,West,261,9.0,11.0,61,0.00,,,0.00,VWS V14.01,2013-02-27 15:40:00,
2013-02-27 16:44:00,53.4,40.3,30.11,West,265,5.0,11.0,61,0.00,,,0.00,VWS V14.01,2013-02-27 15:44:00,
2013-02-27 16:49:00,53.6,40.5,30.11,West,275,3.0,9.0,61,0.00,,,0.00,VWS V14.01,2013-02-27 15:49:00,
2013-02-27 16:50:00,53.5,40.4,30.11,West,277,8.0,9.0,61,0.00,,,0.00,VWS V14.01,2013-02-27 15:50:00,
2013-02-27 16:54:00,53.5,40.4,30.11,West,265,4.0,9.0,61,0.00,,,0.00,VWS V14.01,2013-02-27 15:54:00,
2013-02-27 16:59:00,53.2,40.5,30.11,West,277,10.0,10.0,62,0.00,,,0.00,VWS V14.01,2013-02-27 15:59:00,
2013-02-27 17:00:00,52.9,39.8,30.12,West,259,6.0,10.0,61,0.00,,,0.00,VWS V14.01,2013-02-27 16:00:00,
2013-02-27 17:04:00,52.9,39.8,30.11,WNW,288,3.0,10.0,61,0.00,,,0.00,VWS V14.01,2013-02-27 16:04:00,
2013-02-27 17:09:00,53.0,39.9,30.11,WNW,300,3.0,8.0,61,0.00,,,0.00,VWS V14.01,2013-02-27 16:09:00,
2013-02-27 17:10:00,52.7,39.6,30.12,WNW,286,7.0,8.0,61,0.00,,,0.00,VWS V14.01,2013-02-27 16:10:00,
2013-02-27 17:14:00,52.7,39.6,30.11,WNW,298,5.0,8.0,61,0.00,,,0.00,VWS V14.01,2013-02-27 16:14:00,
2013-02-27 17:19:00,52.6,39.5,30.11,WNW,295,5.0,8.0,61,0.00,,,0.00,VWS V14.01,2013-02-27 16:19:00,
2013-02-27 17:20:00,52.9,39.8,30.12,WNW,296,4.0,8.0,61,0.00,,,0.00,VWS V14.01,2013-02-27 16:20:00,
2013-02-27 17:24:00,52.8,39.7,30.12,WNW,296,1.0,8.0,61,0.00,,,0.00,VWS V14.01,2013-02-27 16:24:00,
2013-02-27 17:29:00,52.7,39.6,30.12,WNW,297,2.0,6.0,61,0.00,,,0.00,VWS V14.01,2013-02-27 16:29:00,
2013-02-27 17:30:00,52.5,39.9,30.12,WNW,293,3.0,6.0,62,0.00,,,0.00,VWS V14.01,2013-02-27 16:30:00,
2013-02-27 17:34:00,52.5,39.9,30.12,WNW,293,2.0,6.0,62,0.00,,,0.00,VWS V14.01,2013-02-27 16:34:00,
2013-02-27 17:39:00,52.5,39.9,30.12,WNW,292,2.0,5.0,62,0.00,,,0.00,VWS V14.01,2013-02-27 16:39:00,
2013-02-27 17:40:00,52.3,39.7,30.12,WNW,292,0.0,5.0,62,0.00,,,0.00,VWS V14.01,2013-02-27 16:40:00,
2013-02-27 17:44:00,52.3,39.7,30.12,WNW,292,3.0,5.0,62,0.00,,,0.00,VWS V14.01,2013-02-27 16:44:00,
2013-02-27 17:49:00,52.1,39.5,30.12,WNW,292,2.0,2.0,62,0.00,,,0.00,VWS V14.01,2013-02-27 16:49:00,
2013-02-27 17:50:00,52.0,39.4,30.12,WNW,292,2.0,2.0,62,0.00,,,0.00,VWS V14.01,2013-02-27 16:50:00,
2013-02-27 17:54:00,52.0,39.4,30.12,WNW,293,1.0,2.0,62,0.00,,,0.00,VWS V14.01,2013-02-27 16:54:00,
2013-02-27 17:59:00,51.8,39.6,30.12,WNW,292,1.0,2.0,63,0.00,,,0.00,VWS V14.01,2013-02-27 16:59:00,
2013-02-27 18:00:00,51.5,39.7,30.13,WNW,292,0.0,2.0,64,0.00,,,0.00,VWS V14.01,2013-02-27 17:00:00,
2013-02-27 18:04:00,51.6,39.8,30.13,WNW,293,0.0,2.0,64,0.00,,,0.00,VWS V14.01,2013-02-27 17:04:00,
2013-02-27 18:09:00,51.3,40.0,30.13,WNW,293,1.0,2.0,65,0.00,,,0.00,VWS V14.01,2013-02-27 17:09:00,
2013-02-27 18:10:00,50.9,39.6,30.13,WNW,292,1.0,3.0,65,0.00,,,0.00,VWS V14.01,2013-02-27 17:10:00,
2013-02-27 18:14:00,51.0,39.7,30.13,WNW,292,1.0,3.0,65,0.00,,,0.00,VWS V14.01,2013-02-27 17:14:00,
2013-02-27 18:19:00,50.8,39.9,30.13,WNW,292,0.0,3.0,66,0.00,,,0.00,VWS V14.01,2013-02-27 17:19:00,
2013-02-27 18:20:00,50.5,39.6,30.13,WNW,293,4.0,4.0,66,0.00,,,0.00,VWS V14.01,2013-02-27 17:20:00,
2013-02-27 18:24:00,50.6,39.7,30.13,WNW,293,3.0,4.0,66,0.00,,,0.00,VWS V14.01,2013-02-27 17:24:00,
2013-02-27 18:29:00,50.3,39.0,30.13,WNW,293,2.0,4.0,65,0.00,,,0.00,VWS V14.01,2013-02-27 17:29:00,
2013-02-27 18:30:00,50.4,38.7,30.13,WNW,293,3.0,4.0,64,0.00,,,0.00,VWS V14.01,2013-02-27 17:30:00,
2013-02-27 18:34:00,50.4,38.7,30.13,WNW,293,3.0,4.0,64,0.00,,,0.00,VWS V14.01,2013-02-27 17:34:00,
2013-02-27 18:39:00,50.4,38.7,30.13,WNW,293,3.0,4.0,64,0.00,,,0.00,VWS V14.01,2013-02-27 17:39:00,
2013-02-27 18:40:00,50.2,38.5,30.13,WNW,293,3.0,4.0,64,0.00,,,0.00,VWS V14.01,2013-02-27 17:40:00,
2013-02-27 18:44:00,50.2,38.5,30.13,WNW,293,3.0,4.0,64,0.00,,,0.00,VWS V14.01,2013-02-27 17:44:00,
2013-02-27 18:50:00,50.2,38.5,30.13,WNW,293,3.0,3.0,64,0.00,,,0.00,VWS V14.01,2013-02-27 17:50:00,
2013-02-27 18:55:00,50.2,38.5,30.13,WNW,293,4.0,4.0,64,0.00,,,0.00,VWS V14.01,2013-02-27 17:55:00,
2013-02-27 19:00:00,50.1,38.4,30.13,WNW,293,4.0,4.0,64,0.00,,,0.00,VWS V14.01,2013-02-27 18:00:00,
2013-02-27 19:05:00,50.0,38.3,30.13,NW,304,4.0,4.0,64,0.00,,,0.00,VWS V14.01,2013-02-27 18:05:00,
2013-02-27 19:10:00,50.1,38.4,30.14,NW,320,4.0,4.0,64,0.00,,,0.00,VWS V14.01,2013-02-27 18:10:00,
2013-02-27 19:15:00,50.1,38.4,30.14,NNW,331,3.0,4.0,64,0.00,,,0.00,VWS V14.01,2013-02-27 18:15:00,
2013-02-27 19:20:00,50.2,38.5,30.14,NNW,331,3.0,4.0,64,0.00,,,0.00,VWS V14.01,2013-02-27 18:20:00,
2013-02-27 19:25:00,50.3,38.6,30.14,NNW,332,1.0,4.0,64,0.00,,,0.00,VWS V14.01,2013-02-27 18:25:00,
2013-02-27 19:30:00,50.2,38.5,30.14,NNW,333,2.0,4.0,64,0.00,,,0.00,VWS V14.01,2013-02-27 18:30:00,
2013-02-27 19:35:00,50.0,38.3,30.14,NNW,336,3.0,4.0,64,0.00,,,0.00,VWS V14.01,2013-02-27 18:35:00,
2013-02-27 19:40:00,50.0,38.3,30.14,North,349,3.0,4.0,64,0.00,,,0.00,VWS V14.01,2013-02-27 18:40:00,
2013-02-27 19:45:00,50.1,38.4,30.14,North,355,3.0,4.0,64,0.00,,,0.00,VWS V14.01,2013-02-27 18:45:00,
2013-02-27 19:50:00,50.1,38.4,30.14,North,360,4.0,4.0,64,0.00,,,0.00,VWS V14.01,2013-02-27 18:50:00,
2013-02-27 19:55:00,50.1,38.4,30.14,North,5,3.0,5.0,64,0.00,,,0.00,VWS V14.01,2013-02-27 18:55:00,
2013-02-27 20:00:00,49.8,38.5,30.14,North,9,2.0,4.0,65,0.00,,,0.00,VWS V14.01,2013-02-27 19:00:00,
2013-02-27 20:05:00,49.6,38.3,30.14,North,11,4.0,4.0,65,0.00,,,0.00,VWS V14.01,2013-02-27 19:05:00,
2013-02-27 20:10:00,49.7,38.4,30.14,North,11,4.0,4.0,65,0.00,,,0.00,VWS V14.01,2013-02-27 19:10:00,
2013-02-27 20:15:00,49.3,38.4,30.14,North,11,2.0,4.0,66,0.00,,,0.00,VWS V14.01,2013-02-27 19:15:00,
2013-02-27 20:20:00,49.4,38.5,30.14,North,11,3.0,4.0,66,0.00,,,0.00,VWS V14.01,2013-02-27 19:20:00,
2013-02-27 20:25:00,49.7,38.8,30.14,North,11,3.0,4.0,66,0.00,,,0.00,VWS V14.01,2013-02-27 19:25:00,
2013-02-27 20:30:00,49.9,38.6,30.14,North,11,3.0,4.0,65,0.00,,,0.00,VWS V14.01,2013-02-27 19:30:00,
2013-02-27 20:35:00,50.1,38.8,30.14,North,11,3.0,4.0,65,0.00,,,0.00,VWS V14.01,2013-02-27 19:35:00,
2013-02-27 20:40:00,50.2,38.5,30.14,North,11,3.0,4.0,64,0.00,,,0.00,VWS V14.01,2013-02-27 19:40:00,
2013-02-27 20:45:00,50.2,38.5,30.14,North,11,3.0,4.0,64,0.00,,,0.00,VWS V14.01,2013-02-27 19:45:00,
2013-02-27 20:50:00,49.8,38.5,30.15,NNE,16,3.0,4.0,65,0.00,,,0.00,VWS V14.01,2013-02-27 19:50:00,
2013-02-27 20:55:00,49.7,38.8,30.15,NNE,21,3.0,4.0,66,0.00,,,0.00,VWS V14.01,2013-02-27 19:55:00,
2013-02-27 21:00:00,50.0,38.7,30.15,NNE,21,3.0,3.0,65,0.00,,,0.00,VWS V14.01,2013-02-27 20:00:00,
2013-02-27 21:05:00,50.0,39.1,30.15,NNE,27,4.0,4.0,66,0.00,,,0.00,VWS V14.01,2013-02-27 20:05:00,
2013-02-27 21:10:00,49.8,38.9,30.15,NE,45,3.0,5.0,66,0.00,,,0.00,VWS V14.01,2013-02-27 20:10:00,
2013-02-27 21:15:00,49.6,38.7,30.15,NE,45,4.0,5.0,66,0.00,,,0.00,VWS V14.01,2013-02-27 20:15:00,
2013-02-27 21:20:00,49.4,38.5,30.16,NE,46,4.0,5.0,66,0.00,,,0.00,VWS V14.01,2013-02-27 20:20:00,
2013-02-27 21:26:00,49.4,38.9,30.16,NE,53,4.0,5.0,67,0.00,,,0.00,VWS V14.01,2013-02-27 20:26:00,
2013-02-27 21:30:00,49.7,38.8,30.16,ENE,63,3.0,5.0,66,0.00,,,0.00,VWS V14.01,2013-02-27 20:30:00,
2013-02-27 21:31:00,49.6,38.7,30.16,ENE,63,4.0,5.0,66,0.00,,,0.00,VWS V14.01,2013-02-27 20:31:00,
2013-02-27 21:35:00,49.7,38.8,30.16,ENE,63,3.0,5.0,66,0.00,,,0.00,VWS V14.01,2013-02-27 20:35:00,
2013-02-27 21:40:00,49.4,38.5,30.16,ENE,65,4.0,5.0,66,0.00,,,0.00,VWS V14.01,2013-02-27 20:40:00,
2013-02-27 21:41:00,49.6,38.7,30.16,ENE,63,4.0,5.0,66,0.00,,,0.00,VWS V14.01,2013-02-27 20:41:00,
2013-02-27 21:45:00,49.4,38.5,30.16,ENE,65,4.0,4.0,66,0.00,,,0.00,VWS V14.01,2013-02-27 20:45:00,
2013-02-27 21:50:00,49.5,38.6,30.16,ENE,72,5.0,5.0,66,0.00,,,0.00,VWS V14.01,2013-02-27 20:50:00,
2013-02-27 21:51:00,49.4,38.5,30.16,ENE,66,5.0,5.0,66,0.00,,,0.00,VWS V14.01,2013-02-27 20:51:00,
2013-02-27 21:56:00,49.5,38.6,30.16,ENE,72,5.0,5.0,66,0.00,,,0.00,VWS V14.01,2013-02-27 20:56:00,
2013-02-27 22:00:00,49.5,39.0,30.17,ENE,72,4.0,5.0,67,0.00,,,0.00,VWS V14.01,2013-02-27 21:00:00,
2013-02-27 22:01:00,49.5,39.0,30.16,ENE,72,4.0,5.0,67,0.00,,,0.00,VWS V14.01,2013-02-27 21:01:00,
2013-02-27 22:06:00,49.5,39.0,30.17,ENE,72,4.0,5.0,67,0.00,,,0.00,VWS V14.01,2013-02-27 21:06:00,
2013-02-27 22:10:00,49.3,38.8,30.16,ENE,72,4.0,5.0,67,0.00,,,0.00,VWS V14.01,2013-02-27 21:10:00,
2013-02-27 22:11:00,49.4,38.9,30.16,ENE,72,3.0,5.0,67,0.00,,,0.00,VWS V14.01,2013-02-27 21:11:00,
2013-02-27 22:16:00,49.3,38.8,30.17,ENE,72,4.0,4.0,67,0.00,,,0.00,VWS V14.01,2013-02-27 21:16:00,
2013-02-27 22:20:00,49.3,38.8,30.16,ENE,72,5.0,5.0,67,0.00,,,0.00,VWS V14.01,2013-02-27 21:20:00,
2013-02-27 22:21:00,49.2,38.7,30.17,ENE,72,4.0,4.0,67,0.00,,,0.00,VWS V14.01,2013-02-27 21:21:00,
2013-02-27 22:26:00,49.3,38.8,30.17,ENE,72,4.0,5.0,67,0.00,,,0.00,VWS V14.01,2013-02-27 21:26:00,
2013-02-27 22:30:00,49.4,38.9,30.16,ENE,72,3.0,5.0,67,0.00,,,0.00,VWS V14.01,2013-02-27 21:30:00,
2013-02-27 22:31:00,49.3,38.8,30.16,ENE,72,4.0,5.0,67,0.00,,,0.00,VWS V14.01,2013-02-27 21:31:00,
2013-02-27 22:35:00,49.4,38.9,30.16,ENE,72,3.0,5.0,67,0.00,,,0.00,VWS V14.01,2013-02-27 21:35:00,
2013-02-27 22:40:00,48.9,38.4,30.17,ENE,72,2.0,4.0,67,0.00,,,0.00,VWS V14.01,2013-02-27 21:40:00,
2013-02-27 22:41:00,49.1,38.6,30.17,ENE,72,3.0,4.0,67,0.00,,,0.00,VWS V14.01,2013-02-27 21:41:00,
2013-02-27 22:46:00,48.9,38.4,30.17,ENE,72,2.0,4.0,67,0.00,,,0.00,VWS V14.01,2013-02-27 21:46:00,
2013-02-27 22:50:00,48.8,39.1,30.16,ENE,77,4.0,7.0,69,0.00,,,0.00,VWS V14.01,2013-02-27 21:50:00,
2013-02-27 22:51:00,48.4,38.3,30.17,ENE,72,4.0,4.0,68,0.00,,,0.00,VWS V14.01,2013-02-27 21:51:00,
2013-02-27 22:56:00,48.8,39.1,30.17,ENE,77,4.0,5.0,69,0.00,,,0.00,VWS V14.01,2013-02-27 21:56:00,
2013-02-27 23:00:00,49.1,39.0,30.16,East,80,5.0,8.0,68,0.00,,,0.00,VWS V14.01,2013-02-27 22:00:00,
2013-02-27 23:01:00,49.1,39.0,30.16,East,80,6.0,8.0,68,0.00,,,0.00,VWS V14.01,2013-02-27 22:01:00,
2013-02-27 23:06:00,49.1,39.0,30.16,East,80,5.0,8.0,68,0.00,,,0.00,VWS V14.01,2013-02-27 22:06:00,
2013-02-27 23:10:00,48.9,38.8,30.16,East,80,5.0,6.0,68,0.00,,,0.00,VWS V14.01,2013-02-27 22:10:00,
2013-02-27 23:11:00,49.0,38.9,30.16,East,80,3.0,6.0,68,0.00,,,0.00,VWS V14.01,2013-02-27 22:11:00,
2013-02-27 23:16:00,48.8,38.7,30.16,East,80,3.0,5.0,68,0.00,,,0.00,VWS V14.01,2013-02-27 22:16:00,
2013-02-27 23:20:00,48.9,39.2,30.17,East,82,5.0,7.0,69,0.00,,,0.00,VWS V14.01,2013-02-27 22:20:00,
2013-02-27 23:21:00,48.8,39.1,30.16,East,81,7.0,7.0,69,0.00,,,0.00,VWS V14.01,2013-02-27 22:21:00,
2013-02-27 23:26:00,48.9,39.2,30.17,East,82,3.0,5.0,69,0.00,,,0.00,VWS V14.01,2013-02-27 22:26:00,
2013-02-27 23:30:00,48.7,39.0,30.17,East,84,5.0,7.0,69,0.00,,,0.00,VWS V14.01,2013-02-27 22:30:00,
2013-02-27 23:31:00,48.9,39.2,30.16,East,84,5.0,7.0,69,0.00,,,0.00,VWS V14.01,2013-02-27 22:31:00,
2013-02-27 23:36:00,48.7,39.0,30.17,East,84,3.0,5.0,69,0.00,,,0.00,VWS V14.01,2013-02-27 22:36:00,
2013-02-27 23:40:00,48.8,39.1,30.17,East,84,5.0,6.0,69,0.00,,,0.00,VWS V14.01,2013-02-27 22:40:00,
2013-02-27 23:41:00,48.7,39.0,30.16,East,84,3.0,6.0,69,0.00,,,0.00,VWS V14.01,2013-02-27 22:41:00,
2013-02-27 23:46:00,48.8,39.1,30.17,East,84,5.0,5.0,69,0.00,,,0.00,VWS V14.01,2013-02-27 22:46:00,
2013-02-27 23:50:00,48.6,38.9,30.17,East,84,5.0,5.0,69,0.00,,,0.00,VWS V14.01,2013-02-27 22:50:00,
2013-02-27 23:51:00,48.7,39.0,30.17,East,84,3.0,5.0,69,0.00,,,0.00,VWS V14.01,2013-02-27 22:51:00,
2013-02-27 23:56:00,48.6,38.9,30.17,East,84,3.0,5.0,69,0.00,,,0.00,VWS V14.01,2013-02-27 22:56:00,